sensor_id;sensor_type;location;lat;lon;timestamp;P1;durP1;ratioP1;P2;durP2;ratioP2
2462;SDS011;1243;54.298;10.172;2023-11-19T00:00:34;9.33;;;7.60;;
2462;SDS011;1243;54.298;10.172;2023-11-19T00:03:00;11.20;;;7.97;;
2462;SDS011;1243;54.298;10.172;2023-11-19T00:05:26;11.13;;;8.53;;
2462;SDS011;1243;54.298;10.172;2023-11-19T00:07:55;8.40;;;7.50;;
2462;SDS011;1243;54.298;10.172;2023-11-19T00:10:21;11.53;;;8.33;;
2462;SDS011;1243;54.298;10.172;2023-11-19T00:12:47;12.30;;;9.13;;
2462;SDS011;1243;54.298;10.172;2023-11-19T00:15:14;9.23;;;8.20;;
2462;SDS011;1243;54.298;10.172;2023-11-19T00:17:44;9.17;;;8.20;;
2462;SDS011;1243;54.298;10.172;2023-11-19T00:22:37;9.97;;;7.87;;
2462;SDS011;1243;54.298;10.172;2023-11-19T00:25:03;13.00;;;8.90;;
2462;SDS011;1243;54.298;10.172;2023-11-19T00:27:30;13.00;;;8.30;;
2462;SDS011;1243;54.298;10.172;2023-11-19T00:29:56;9.27;;;8.03;;
2462;SDS011;1243;54.298;10.172;2023-11-19T00:32:22;11.57;;;8.17;;
2462;SDS011;1243;54.298;10.172;2023-11-19T00:34:48;10.27;;;8.13;;
2462;SDS011;1243;54.298;10.172;2023-11-19T00:37:14;10.70;;;8.67;;
2462;SDS011;1243;54.298;10.172;2023-11-19T00:39:43;9.97;;;7.90;;
2462;SDS011;1243;54.298;10.172;2023-11-19T00:42:09;9.57;;;8.57;;
2462;SDS011;1243;54.298;10.172;2023-11-19T00:44:35;9.17;;;8.20;;
2462;SDS011;1243;54.298;10.172;2023-11-19T00:47:01;10.67;;;8.77;;
2462;SDS011;1243;54.298;10.172;2023-11-19T00:49:27;10.37;;;9.10;;
2462;SDS011;1243;54.298;10.172;2023-11-19T00:51:52;14.40;;;9.20;;
2462;SDS011;1243;54.298;10.172;2023-11-19T00:54:18;8.80;;;7.97;;
2462;SDS011;1243;54.298;10.172;2023-11-19T00:56:44;9.40;;;7.80;;
2462;SDS011;1243;54.298;10.172;2023-11-19T00:59:10;11.00;;;8.70;;
2462;SDS011;1243;54.298;10.172;2023-11-19T01:01:35;9.60;;;8.60;;
2462;SDS011;1243;54.298;10.172;2023-11-19T01:04:01;10.67;;;7.63;;
2462;SDS011;1243;54.298;10.172;2023-11-19T01:06:30;10.00;;;7.37;;
2462;SDS011;1243;54.298;10.172;2023-11-19T01:08:57;11.40;;;8.27;;
2462;SDS011;1243;54.298;10.172;2023-11-19T01:11:23;10.13;;;7.80;;
2462;SDS011;1243;54.298;10.172;2023-11-19T01:13:50;11.17;;;7.60;;
2462;SDS011;1243;54.298;10.172;2023-11-19T01:16:16;9.17;;;8.10;;
2462;SDS011;1243;54.298;10.172;2023-11-19T01:18:42;10.53;;;6.80;;
2462;SDS011;1243;54.298;10.172;2023-11-19T01:21:08;9.10;;;7.40;;
2462;SDS011;1243;54.298;10.172;2023-11-19T01:23:34;8.60;;;7.80;;
2462;SDS011;1243;54.298;10.172;2023-11-19T01:26:00;8.10;;;7.30;;
2462;SDS011;1243;54.298;10.172;2023-11-19T01:28:26;6.87;;;6.27;;
2462;SDS011;1243;54.298;10.172;2023-11-19T01:30:51;8.40;;;6.90;;
2462;SDS011;1243;54.298;10.172;2023-11-19T01:33:17;6.30;;;5.50;;
2462;SDS011;1243;54.298;10.172;2023-11-19T01:35:43;6.43;;;5.47;;
2462;SDS011;1243;54.298;10.172;2023-11-19T01:38:09;5.90;;;5.30;;
2462;SDS011;1243;54.298;10.172;2023-11-19T01:40:35;6.67;;;5.97;;
2462;SDS011;1243;54.298;10.172;2023-11-19T01:43:01;5.97;;;5.40;;
2462;SDS011;1243;54.298;10.172;2023-11-19T01:45:29;6.37;;;5.77;;
2462;SDS011;1243;54.298;10.172;2023-11-19T01:47:56;5.93;;;5.13;;
2462;SDS011;1243;54.298;10.172;2023-11-19T01:50:23;5.90;;;5.40;;
2462;SDS011;1243;54.298;10.172;2023-11-19T01:52:53;6.20;;;5.60;;
2462;SDS011;1243;54.298;10.172;2023-11-19T01:55:19;6.70;;;5.07;;
2462;SDS011;1243;54.298;10.172;2023-11-19T01:57:46;5.77;;;5.27;;
2462;SDS011;1243;54.298;10.172;2023-11-19T02:00:14;6.40;;;5.90;;
2462;SDS011;1243;54.298;10.172;2023-11-19T02:02:41;4.80;;;4.40;;
2462;SDS011;1243;54.298;10.172;2023-11-19T02:05:10;5.03;;;4.67;;
2462;SDS011;1243;54.298;10.172;2023-11-19T02:07:37;5.17;;;4.77;;
2462;SDS011;1243;54.298;10.172;2023-11-19T02:10:03;8.10;;;5.43;;
2462;SDS011;1243;54.298;10.172;2023-11-19T02:12:30;4.90;;;4.60;;
2462;SDS011;1243;54.298;10.172;2023-11-19T02:15:00;5.60;;;5.10;;
2462;SDS011;1243;54.298;10.172;2023-11-19T02:17:28;4.47;;;4.07;;
2462;SDS011;1243;54.298;10.172;2023-11-19T02:19:56;7.60;;;4.53;;
2462;SDS011;1243;54.298;10.172;2023-11-19T02:22:23;4.90;;;4.50;;
2462;SDS011;1243;54.298;10.172;2023-11-19T02:24:49;4.37;;;4.07;;
2462;SDS011;1243;54.298;10.172;2023-11-19T02:27:36;3.83;;;3.53;;
2462;SDS011;1243;54.298;10.172;2023-11-19T02:30:21;2.90;;;2.70;;
2462;SDS011;1243;54.298;10.172;2023-11-19T02:32:51;4.03;;;3.30;;
2462;SDS011;1243;54.298;10.172;2023-11-19T02:35:19;3.07;;;2.87;;
2462;SDS011;1243;54.298;10.172;2023-11-19T02:37:46;4.10;;;3.80;;
2462;SDS011;1243;54.298;10.172;2023-11-19T02:40:12;4.70;;;3.63;;
2462;SDS011;1243;54.298;10.172;2023-11-19T02:42:38;4.30;;;3.90;;
2462;SDS011;1243;54.298;10.172;2023-11-19T02:45:04;3.50;;;3.20;;
2462;SDS011;1243;54.298;10.172;2023-11-19T02:47:31;3.83;;;3.53;;
2462;SDS011;1243;54.298;10.172;2023-11-19T02:49:58;6.73;;;6.03;;
2462;SDS011;1243;54.298;10.172;2023-11-19T02:52:24;3.63;;;3.33;;
2462;SDS011;1243;54.298;10.172;2023-11-19T02:54:50;3.17;;;2.97;;
2462;SDS011;1243;54.298;10.172;2023-11-19T02:57:16;2.70;;;2.50;;
2462;SDS011;1243;54.298;10.172;2023-11-19T02:59:44;3.53;;;3.33;;
2462;SDS011;1243;54.298;10.172;2023-11-19T03:02:10;3.17;;;2.97;;
2462;SDS011;1243;54.298;10.172;2023-11-19T03:04:36;2.73;;;2.63;;
2462;SDS011;1243;54.298;10.172;2023-11-19T03:07:06;3.00;;;2.80;;
2462;SDS011;1243;54.298;10.172;2023-11-19T03:09:32;2.90;;;2.70;;
2462;SDS011;1243;54.298;10.172;2023-11-19T03:11:59;2.60;;;2.40;;
2462;SDS011;1243;54.298;10.172;2023-11-19T03:14:25;3.23;;;3.03;;
2462;SDS011;1243;54.298;10.172;2023-11-19T03:16:51;2.30;;;2.20;;
2462;SDS011;1243;54.298;10.172;2023-11-19T03:19:17;2.67;;;2.20;;
2462;SDS011;1243;54.298;10.172;2023-11-19T03:21:42;2.23;;;2.13;;
2462;SDS011;1243;54.298;10.172;2023-11-19T03:24:09;2.80;;;2.67;;
2462;SDS011;1243;54.298;10.172;2023-11-19T03:26:37;2.43;;;2.33;;
2462;SDS011;1243;54.298;10.172;2023-11-19T03:29:04;2.30;;;2.20;;
2462;SDS011;1243;54.298;10.172;2023-11-19T03:31:30;2.30;;;2.20;;
2462;SDS011;1243;54.298;10.172;2023-11-19T03:33:56;2.53;;;2.33;;
2462;SDS011;1243;54.298;10.172;2023-11-19T03:36:21;2.03;;;1.93;;
2462;SDS011;1243;54.298;10.172;2023-11-19T03:38:47;2.53;;;2.33;;
2462;SDS011;1243;54.298;10.172;2023-11-19T03:41:13;2.90;;;2.70;;
2462;SDS011;1243;54.298;10.172;2023-11-19T03:43:40;2.20;;;2.10;;
2462;SDS011;1243;54.298;10.172;2023-11-19T03:46:19;2.43;;;1.97;;
2462;SDS011;1243;54.298;10.172;2023-11-19T03:48:48;2.30;;;2.10;;
2462;SDS011;1243;54.298;10.172;2023-11-19T03:51:15;2.47;;;2.37;;
2462;SDS011;1243;54.298;10.172;2023-11-19T03:53:46;1.90;;;1.80;;
2462;SDS011;1243;54.298;10.172;2023-11-19T03:56:12;2.20;;;2.10;;
2462;SDS011;1243;54.298;10.172;2023-11-19T03:58:38;1.80;;;1.60;;
2462;SDS011;1243;54.298;10.172;2023-11-19T04:01:04;2.53;;;2.40;;
2462;SDS011;1243;54.298;10.172;2023-11-19T04:03:31;2.30;;;2.20;;
2462;SDS011;1243;54.298;10.172;2023-11-19T04:05:57;1.90;;;1.80;;
2462;SDS011;1243;54.298;10.172;2023-11-19T04:08:22;2.27;;;2.17;;
2462;SDS011;1243;54.298;10.172;2023-11-19T04:10:48;2.20;;;2.10;;
2462;SDS011;1243;54.298;10.172;2023-11-19T04:13:14;2.27;;;2.17;;
2462;SDS011;1243;54.298;10.172;2023-11-19T04:15:39;2.30;;;2.10;;
2462;SDS011;1243;54.298;10.172;2023-11-19T04:18:05;2.10;;;2.00;;
2462;SDS011;1243;54.298;10.172;2023-11-19T04:20:31;2.00;;;1.90;;
2462;SDS011;1243;54.298;10.172;2023-11-19T04:22:57;2.20;;;2.10;;
2462;SDS011;1243;54.298;10.172;2023-11-19T04:25:25;1.97;;;1.87;;
2462;SDS011;1243;54.298;10.172;2023-11-19T04:27:51;2.10;;;2.00;;
2462;SDS011;1243;54.298;10.172;2023-11-19T04:30:17;2.60;;;2.40;;
2462;SDS011;1243;54.298;10.172;2023-11-19T04:32:45;2.40;;;2.30;;
2462;SDS011;1243;54.298;10.172;2023-11-19T04:35:11;6.70;;;2.47;;
2462;SDS011;1243;54.298;10.172;2023-11-19T04:37:37;2.83;;;2.73;;
2462;SDS011;1243;54.298;10.172;2023-11-19T04:40:03;2.23;;;2.13;;
2462;SDS011;1243;54.298;10.172;2023-11-19T04:42:29;3.43;;;2.40;;
2462;SDS011;1243;54.298;10.172;2023-11-19T04:44:54;2.20;;;2.10;;
2462;SDS011;1243;54.298;10.172;2023-11-19T04:47:20;1.90;;;1.80;;
2462;SDS011;1243;54.298;10.172;2023-11-19T04:49:46;2.20;;;2.10;;
2462;SDS011;1243;54.298;10.172;2023-11-19T04:52:12;2.50;;;2.40;;
2462;SDS011;1243;54.298;10.172;2023-11-19T04:54:41;2.07;;;1.97;;
2462;SDS011;1243;54.298;10.172;2023-11-19T04:57:08;2.10;;;2.00;;
2462;SDS011;1243;54.298;10.172;2023-11-19T04:59:37;2.30;;;2.20;;
2462;SDS011;1243;54.298;10.172;2023-11-19T05:02:03;2.50;;;2.40;;
2462;SDS011;1243;54.298;10.172;2023-11-19T05:04:29;2.20;;;2.10;;
2462;SDS011;1243;54.298;10.172;2023-11-19T05:06:55;2.37;;;2.27;;
2462;SDS011;1243;54.298;10.172;2023-11-19T05:09:21;2.37;;;2.17;;
2462;SDS011;1243;54.298;10.172;2023-11-19T05:11:47;3.60;;;2.10;;
2462;SDS011;1243;54.298;10.172;2023-11-19T05:14:13;2.17;;;2.07;;
2462;SDS011;1243;54.298;10.172;2023-11-19T05:16:41;2.30;;;2.20;;
2462;SDS011;1243;54.298;10.172;2023-11-19T05:19:08;2.43;;;2.33;;
2462;SDS011;1243;54.298;10.172;2023-11-19T05:21:34;2.30;;;2.20;;
2462;SDS011;1243;54.298;10.172;2023-11-19T05:24:00;2.83;;;2.47;;
2462;SDS011;1243;54.298;10.172;2023-11-19T05:26:29;2.13;;;2.03;;
2462;SDS011;1243;54.298;10.172;2023-11-19T05:28:55;2.50;;;2.40;;
2462;SDS011;1243;54.298;10.172;2023-11-19T05:31:21;2.37;;;2.17;;
2462;SDS011;1243;54.298;10.172;2023-11-19T05:33:47;2.97;;;2.77;;
2462;SDS011;1243;54.298;10.172;2023-11-19T05:36:12;2.33;;;2.23;;
2462;SDS011;1243;54.298;10.172;2023-11-19T05:38:38;3.67;;;3.37;;
2462;SDS011;1243;54.298;10.172;2023-11-19T05:41:04;3.03;;;2.83;;
2462;SDS011;1243;54.298;10.172;2023-11-19T05:43:31;2.67;;;2.57;;
2462;SDS011;1243;54.298;10.172;2023-11-19T05:45:57;2.83;;;2.73;;
2462;SDS011;1243;54.298;10.172;2023-11-19T05:48:24;3.00;;;2.80;;
2462;SDS011;1243;54.298;10.172;2023-11-19T05:50:50;3.47;;;3.27;;
2462;SDS011;1243;54.298;10.172;2023-11-19T05:53:17;2.90;;;2.70;;
2462;SDS011;1243;54.298;10.172;2023-11-19T05:55:42;4.07;;;3.77;;
2462;SDS011;1243;54.298;10.172;2023-11-19T05:58:14;2.77;;;2.67;;
2462;SDS011;1243;54.298;10.172;2023-11-19T06:00:40;4.13;;;3.80;;
2462;SDS011;1243;54.298;10.172;2023-11-19T06:03:07;3.60;;;3.40;;
2462;SDS011;1243;54.298;10.172;2023-11-19T06:05:33;3.70;;;3.40;;
2462;SDS011;1243;54.298;10.172;2023-11-19T06:07:58;3.73;;;3.53;;
2462;SDS011;1243;54.298;10.172;2023-11-19T06:10:24;3.57;;;3.37;;
2462;SDS011;1243;54.298;10.172;2023-11-19T06:12:59;3.70;;;3.50;;
2462;SDS011;1243;54.298;10.172;2023-11-19T06:15:25;4.30;;;4.00;;
2462;SDS011;1243;54.298;10.172;2023-11-19T06:17:54;4.30;;;4.00;;
2462;SDS011;1243;54.298;10.172;2023-11-19T06:20:20;6.67;;;4.57;;
2462;SDS011;1243;54.298;10.172;2023-11-19T06:22:46;4.20;;;3.90;;
2462;SDS011;1243;54.298;10.172;2023-11-19T06:25:12;4.37;;;3.97;;
2462;SDS011;1243;54.298;10.172;2023-11-19T06:27:40;4.23;;;3.60;;
2462;SDS011;1243;54.298;10.172;2023-11-19T06:30:06;5.67;;;4.50;;
2462;SDS011;1243;54.298;10.172;2023-11-19T06:32:32;5.77;;;5.03;;
2462;SDS011;1243;54.298;10.172;2023-11-19T06:34:58;5.30;;;4.83;;
2462;SDS011;1243;54.298;10.172;2023-11-19T06:37:23;8.20;;;6.07;;
2462;SDS011;1243;54.298;10.172;2023-11-19T06:39:49;7.23;;;5.60;;
2462;SDS011;1243;54.298;10.172;2023-11-19T06:42:15;9.77;;;5.33;;
2462;SDS011;1243;54.298;10.172;2023-11-19T06:44:41;5.83;;;5.27;;
2462;SDS011;1243;54.298;10.172;2023-11-19T06:47:06;10.63;;;5.30;;
2462;SDS011;1243;54.298;10.172;2023-11-19T06:49:32;7.10;;;6.33;;
2462;SDS011;1243;54.298;10.172;2023-11-19T06:51:58;8.10;;;6.43;;
2462;SDS011;1243;54.298;10.172;2023-11-19T06:54:24;7.63;;;6.57;;
2462;SDS011;1243;54.298;10.172;2023-11-19T06:56:50;9.50;;;7.00;;
2462;SDS011;1243;54.298;10.172;2023-11-19T06:59:16;8.17;;;6.83;;
2462;SDS011;1243;54.298;10.172;2023-11-19T07:01:42;7.93;;;6.87;;
2462;SDS011;1243;54.298;10.172;2023-11-19T07:04:11;9.60;;;7.87;;
2462;SDS011;1243;54.298;10.172;2023-11-19T07:06:37;9.73;;;7.37;;
2462;SDS011;1243;54.298;10.172;2023-11-19T07:09:04;18.20;;;8.97;;
2462;SDS011;1243;54.298;10.172;2023-11-19T07:11:40;14.63;;;7.13;;
2462;SDS011;1243;54.298;10.172;2023-11-19T07:14:09;11.93;;;8.53;;
2462;SDS011;1243;54.298;10.172;2023-11-19T07:16:35;15.43;;;9.20;;
2462;SDS011;1243;54.298;10.172;2023-11-19T07:19:06;9.07;;;7.77;;
2462;SDS011;1243;54.298;10.172;2023-11-19T07:21:32;12.07;;;8.47;;
2462;SDS011;1243;54.298;10.172;2023-11-19T07:23:58;13.67;;;9.00;;
2462;SDS011;1243;54.298;10.172;2023-11-19T07:26:24;16.10;;;8.57;;
2462;SDS011;1243;54.298;10.172;2023-11-19T07:28:50;21.60;;;10.70;;
2462;SDS011;1243;54.298;10.172;2023-11-19T07:31:16;12.57;;;9.63;;
2462;SDS011;1243;54.298;10.172;2023-11-19T07:33:45;17.50;;;9.10;;
2462;SDS011;1243;54.298;10.172;2023-11-19T07:36:12;14.30;;;8.80;;
2462;SDS011;1243;54.298;10.172;2023-11-19T07:38:38;25.37;;;10.30;;
2462;SDS011;1243;54.298;10.172;2023-11-19T07:41:07;18.00;;;8.03;;
2462;SDS011;1243;54.298;10.172;2023-11-19T07:43:37;21.27;;;9.50;;
2462;SDS011;1243;54.298;10.172;2023-11-19T07:46:05;13.10;;;9.90;;
2462;SDS011;1243;54.298;10.172;2023-11-19T07:48:35;17.77;;;10.00;;
2462;SDS011;1243;54.298;10.172;2023-11-19T07:51:01;14.73;;;11.10;;
2462;SDS011;1243;54.298;10.172;2023-11-19T07:53:27;13.47;;;9.10;;
2462;SDS011;1243;54.298;10.172;2023-11-19T07:55:53;15.83;;;9.67;;
2462;SDS011;1243;54.298;10.172;2023-11-19T07:58:19;11.80;;;9.40;;
2462;SDS011;1243;54.298;10.172;2023-11-19T08:00:44;19.00;;;9.40;;
2462;SDS011;1243;54.298;10.172;2023-11-19T08:03:10;13.03;;;9.40;;
2462;SDS011;1243;54.298;10.172;2023-11-19T08:05:36;17.60;;;8.40;;
2462;SDS011;1243;54.298;10.172;2023-11-19T08:08:01;13.60;;;8.33;;
2462;SDS011;1243;54.298;10.172;2023-11-19T08:10:27;16.20;;;9.23;;
2462;SDS011;1243;54.298;10.172;2023-11-19T08:12:53;14.93;;;9.07;;
2462;SDS011;1243;54.298;10.172;2023-11-19T08:15:19;14.50;;;8.60;;
2462;SDS011;1243;54.298;10.172;2023-11-19T08:17:45;11.87;;;8.40;;
2462;SDS011;1243;54.298;10.172;2023-11-19T08:20:10;16.63;;;8.27;;
2462;SDS011;1243;54.298;10.172;2023-11-19T08:22:37;23.50;;;7.60;;
2462;SDS011;1243;54.298;10.172;2023-11-19T08:25:04;28.73;;;7.90;;
2462;SDS011;1243;54.298;10.172;2023-11-19T08:27:30;12.10;;;6.00;;
2462;SDS011;1243;54.298;10.172;2023-11-19T08:29:56;17.67;;;6.30;;
2462;SDS011;1243;54.298;10.172;2023-11-19T08:32:24;18.43;;;6.33;;
2462;SDS011;1243;54.298;10.172;2023-11-19T08:34:53;13.33;;;5.40;;
2462;SDS011;1243;54.298;10.172;2023-11-19T08:37:19;14.87;;;5.80;;
2462;SDS011;1243;54.298;10.172;2023-11-19T08:39:47;26.50;;;6.47;;
2462;SDS011;1243;54.298;10.172;2023-11-19T08:42:13;16.27;;;5.40;;
2462;SDS011;1243;54.298;10.172;2023-11-19T08:44:39;19.30;;;5.77;;
2462;SDS011;1243;54.298;10.172;2023-11-19T08:47:05;24.13;;;5.87;;
2462;SDS011;1243;54.298;10.172;2023-11-19T08:49:31;26.33;;;6.57;;
2462;SDS011;1243;54.298;10.172;2023-11-19T08:51:57;31.80;;;6.57;;
2462;SDS011;1243;54.298;10.172;2023-11-19T08:54:22;22.77;;;6.50;;
2462;SDS011;1243;54.298;10.172;2023-11-19T08:56:48;17.13;;;7.23;;
2462;SDS011;1243;54.298;10.172;2023-11-19T08:59:15;24.80;;;6.00;;
2462;SDS011;1243;54.298;10.172;2023-11-19T09:01:41;33.33;;;11.53;;
2462;SDS011;1243;54.298;10.172;2023-11-19T09:04:07;22.07;;;5.87;;
2462;SDS011;1243;54.298;10.172;2023-11-19T09:06:32;24.73;;;5.97;;
2462;SDS011;1243;54.298;10.172;2023-11-19T09:09:00;22.57;;;7.00;;
2462;SDS011;1243;54.298;10.172;2023-11-19T09:11:28;35.60;;;6.90;;
2462;SDS011;1243;54.298;10.172;2023-11-19T09:13:54;33.37;;;6.13;;
2462;SDS011;1243;54.298;10.172;2023-11-19T09:16:19;35.67;;;7.87;;
2462;SDS011;1243;54.298;10.172;2023-11-19T09:18:45;21.50;;;5.87;;
2462;SDS011;1243;54.298;10.172;2023-11-19T09:21:11;25.83;;;5.93;;
2462;SDS011;1243;54.298;10.172;2023-11-19T09:23:37;30.30;;;9.00;;
2462;SDS011;1243;54.298;10.172;2023-11-19T09:26:13;36.50;;;6.93;;
2462;SDS011;1243;54.298;10.172;2023-11-19T09:28:39;27.43;;;6.73;;
2462;SDS011;1243;54.298;10.172;2023-11-19T09:31:17;33.03;;;8.47;;
2462;SDS011;1243;54.298;10.172;2023-11-19T09:33:43;18.30;;;5.83;;
2462;SDS011;1243;54.298;10.172;2023-11-19T09:36:11;42.73;;;7.50;;
2462;SDS011;1243;54.298;10.172;2023-11-19T09:38:39;28.30;;;7.20;;
2462;SDS011;1243;54.298;10.172;2023-11-19T09:41:11;31.10;;;6.63;;
2462;SDS011;1243;54.298;10.172;2023-11-19T09:43:41;38.27;;;7.23;;
2462;SDS011;1243;54.298;10.172;2023-11-19T09:46:09;30.40;;;5.93;;
2462;SDS011;1243;54.298;10.172;2023-11-19T09:48:38;25.03;;;8.30;;
2462;SDS011;1243;54.298;10.172;2023-11-19T09:51:08;19.83;;;5.20;;
2462;SDS011;1243;54.298;10.172;2023-11-19T09:53:35;28.73;;;8.00;;
2462;SDS011;1243;54.298;10.172;2023-11-19T09:56:02;33.13;;;7.93;;
2462;SDS011;1243;54.298;10.172;2023-11-19T09:58:33;34.93;;;8.83;;
2462;SDS011;1243;54.298;10.172;2023-11-19T10:00:59;26.57;;;9.43;;
2462;SDS011;1243;54.298;10.172;2023-11-19T10:03:30;24.83;;;6.60;;
2462;SDS011;1243;54.298;10.172;2023-11-19T10:06:09;27.67;;;8.40;;
2462;SDS011;1243;54.298;10.172;2023-11-19T10:08:39;22.67;;;6.47;;
2462;SDS011;1243;54.298;10.172;2023-11-19T10:11:05;41.23;;;8.13;;
2462;SDS011;1243;54.298;10.172;2023-11-19T10:13:31;23.03;;;6.07;;
2462;SDS011;1243;54.298;10.172;2023-11-19T10:16:20;27.80;;;6.63;;
2462;SDS011;1243;54.298;10.172;2023-11-19T10:18:46;19.93;;;6.13;;
2462;SDS011;1243;54.298;10.172;2023-11-19T10:21:13;25.60;;;7.13;;
2462;SDS011;1243;54.298;10.172;2023-11-19T10:23:55;22.27;;;5.80;;
2462;SDS011;1243;54.298;10.172;2023-11-19T10:26:24;22.53;;;5.90;;
2462;SDS011;1243;54.298;10.172;2023-11-19T10:28:51;22.40;;;5.97;;
2462;SDS011;1243;54.298;10.172;2023-11-19T10:31:17;27.03;;;6.80;;
2462;SDS011;1243;54.298;10.172;2023-11-19T10:33:44;25.73;;;6.67;;
2462;SDS011;1243;54.298;10.172;2023-11-19T10:36:13;30.43;;;6.23;;
2462;SDS011;1243;54.298;10.172;2023-11-19T10:38:39;32.37;;;7.17;;
2462;SDS011;1243;54.298;10.172;2023-11-19T10:41:06;35.00;;;6.70;;
2462;SDS011;1243;54.298;10.172;2023-11-19T10:43:42;28.83;;;6.10;;
2462;SDS011;1243;54.298;10.172;2023-11-19T10:46:13;18.77;;;5.93;;
2462;SDS011;1243;54.298;10.172;2023-11-19T10:48:39;27.27;;;6.80;;
2462;SDS011;1243;54.298;10.172;2023-11-19T10:51:05;19.53;;;6.40;;
2462;SDS011;1243;54.298;10.172;2023-11-19T10:53:33;19.40;;;5.43;;
2462;SDS011;1243;54.298;10.172;2023-11-19T10:56:02;17.63;;;6.13;;
2462;SDS011;1243;54.298;10.172;2023-11-19T10:58:36;19.87;;;5.70;;
2462;SDS011;1243;54.298;10.172;2023-11-19T11:01:07;19.60;;;4.90;;
2462;SDS011;1243;54.298;10.172;2023-11-19T11:03:41;28.73;;;6.80;;
2462;SDS011;1243;54.298;10.172;2023-11-19T11:06:11;27.73;;;6.80;;
2462;SDS011;1243;54.298;10.172;2023-11-19T11:08:38;26.70;;;7.30;;
2462;SDS011;1243;54.298;10.172;2023-11-19T11:11:04;30.00;;;6.33;;
2462;SDS011;1243;54.298;10.172;2023-11-19T11:13:33;24.20;;;5.53;;
2462;SDS011;1243;54.298;10.172;2023-11-19T11:16:01;16.57;;;7.70;;
2462;SDS011;1243;54.298;10.172;2023-11-19T11:18:29;28.67;;;6.10;;
2462;SDS011;1243;54.298;10.172;2023-11-19T11:21:05;30.10;;;7.43;;
2462;SDS011;1243;54.298;10.172;2023-11-19T11:29:16;29.57;;;6.43;;
2462;SDS011;1243;54.298;10.172;2023-11-19T11:32:07;36.13;;;7.70;;
2462;SDS011;1243;54.298;10.172;2023-11-19T11:37:39;19.67;;;6.13;;
2462;SDS011;1243;54.298;10.172;2023-11-19T11:40:16;23.00;;;6.43;;
2462;SDS011;1243;54.298;10.172;2023-11-19T11:42:43;29.97;;;8.20;;
2462;SDS011;1243;54.298;10.172;2023-11-19T11:45:10;24.57;;;5.93;;
2462;SDS011;1243;54.298;10.172;2023-11-19T11:48:10;19.53;;;5.63;;
2462;SDS011;1243;54.298;10.172;2023-11-19T11:50:33;43.20;;;8.10;;
2462;SDS011;1243;54.298;10.172;2023-11-19T11:55:34;28.27;;;7.23;;
2462;SDS011;1243;54.298;10.172;2023-11-19T11:58:06;26.03;;;6.17;;
2462;SDS011;1243;54.298;10.172;2023-11-19T12:00:37;24.63;;;8.37;;
2462;SDS011;1243;54.298;10.172;2023-11-19T12:03:04;18.30;;;6.23;;
2462;SDS011;1243;54.298;10.172;2023-11-19T12:05:31;22.93;;;7.63;;
2462;SDS011;1243;54.298;10.172;2023-11-19T12:10:26;35.47;;;7.27;;
2462;SDS011;1243;54.298;10.172;2023-11-19T12:12:58;37.87;;;6.33;;
2462;SDS011;1243;54.298;10.172;2023-11-19T12:15:25;26.40;;;6.20;;
2462;SDS011;1243;54.298;10.172;2023-11-19T12:17:52;26.07;;;7.23;;
2462;SDS011;1243;54.298;10.172;2023-11-19T12:20:22;22.00;;;6.23;;
2462;SDS011;1243;54.298;10.172;2023-11-19T12:22:49;23.60;;;7.30;;
2462;SDS011;1243;54.298;10.172;2023-11-19T12:25:16;27.63;;;8.03;;
2462;SDS011;1243;54.298;10.172;2023-11-19T12:27:43;26.83;;;7.43;;
2462;SDS011;1243;54.298;10.172;2023-11-19T12:30:22;32.10;;;6.87;;
2462;SDS011;1243;54.298;10.172;2023-11-19T12:32:52;24.97;;;6.83;;
2462;SDS011;1243;54.298;10.172;2023-11-19T12:35:21;20.40;;;6.67;;
2462;SDS011;1243;54.298;10.172;2023-11-19T12:37:49;42.80;;;6.93;;
2462;SDS011;1243;54.298;10.172;2023-11-19T12:40:22;20.23;;;7.00;;
2462;SDS011;1243;54.298;10.172;2023-11-19T12:42:50;19.83;;;7.80;;
2462;SDS011;1243;54.298;10.172;2023-11-19T12:45:20;30.27;;;8.30;;
2462;SDS011;1243;54.298;10.172;2023-11-19T12:47:48;24.00;;;8.13;;
2462;SDS011;1243;54.298;10.172;2023-11-19T12:50:14;26.93;;;7.43;;
2462;SDS011;1243;54.298;10.172;2023-11-19T12:52:43;20.70;;;5.67;;
2462;SDS011;1243;54.298;10.172;2023-11-19T12:55:27;24.60;;;6.93;;
2462;SDS011;1243;54.298;10.172;2023-11-19T12:57:54;17.63;;;4.87;;
2462;SDS011;1243;54.298;10.172;2023-11-19T13:00:21;25.10;;;6.73;;
2462;SDS011;1243;54.298;10.172;2023-11-19T13:02:50;28.63;;;6.80;;
2462;SDS011;1243;54.298;10.172;2023-11-19T13:05:20;20.97;;;5.40;;
2462;SDS011;1243;54.298;10.172;2023-11-19T13:08:06;18.20;;;5.27;;
2462;SDS011;1243;54.298;10.172;2023-11-19T13:10:54;16.80;;;4.30;;
2462;SDS011;1243;54.298;10.172;2023-11-19T13:13:20;14.13;;;4.60;;
2462;SDS011;1243;54.298;10.172;2023-11-19T13:15:46;16.00;;;4.13;;
2462;SDS011;1243;54.298;10.172;2023-11-19T13:18:12;29.80;;;5.67;;
2462;SDS011;1243;54.298;10.172;2023-11-19T13:20:39;18.63;;;5.03;;
2462;SDS011;1243;54.298;10.172;2023-11-19T13:23:05;14.73;;;4.63;;
2462;SDS011;1243;54.298;10.172;2023-11-19T13:25:35;22.37;;;4.67;;
2462;SDS011;1243;54.298;10.172;2023-11-19T13:28:01;23.83;;;5.97;;
2462;SDS011;1243;54.298;10.172;2023-11-19T13:30:27;14.50;;;5.27;;
2462;SDS011;1243;54.298;10.172;2023-11-19T13:32:54;15.47;;;5.03;;
2462;SDS011;1243;54.298;10.172;2023-11-19T13:35:20;34.93;;;6.40;;
2462;SDS011;1243;54.298;10.172;2023-11-19T13:37:47;14.93;;;5.33;;
2462;SDS011;1243;54.298;10.172;2023-11-19T13:40:13;19.90;;;5.13;;
2462;SDS011;1243;54.298;10.172;2023-11-19T13:42:42;12.90;;;4.77;;
2462;SDS011;1243;54.298;10.172;2023-11-19T13:45:11;29.67;;;5.87;;
2462;SDS011;1243;54.298;10.172;2023-11-19T13:47:38;12.20;;;4.70;;
2462;SDS011;1243;54.298;10.172;2023-11-19T13:50:07;19.40;;;5.27;;
2462;SDS011;1243;54.298;10.172;2023-11-19T13:52:37;19.73;;;5.23;;
2462;SDS011;1243;54.298;10.172;2023-11-19T13:55:05;19.50;;;5.10;;
2462;SDS011;1243;54.298;10.172;2023-11-19T13:57:32;21.60;;;5.50;;
2462;SDS011;1243;54.298;10.172;2023-11-19T13:59:57;17.10;;;6.13;;
2462;SDS011;1243;54.298;10.172;2023-11-19T14:02:23;37.43;;;7.00;;
2462;SDS011;1243;54.298;10.172;2023-11-19T14:04:49;29.83;;;7.50;;
2462;SDS011;1243;54.298;10.172;2023-11-19T14:07:15;24.43;;;5.97;;
2462;SDS011;1243;54.298;10.172;2023-11-19T14:09:43;25.87;;;6.53;;
2462;SDS011;1243;54.298;10.172;2023-11-19T14:12:10;18.03;;;6.23;;
2462;SDS011;1243;54.298;10.172;2023-11-19T14:14:38;29.53;;;5.77;;
2462;SDS011;1243;54.298;10.172;2023-11-19T14:17:04;23.47;;;7.20;;
2462;SDS011;1243;54.298;10.172;2023-11-19T14:19:30;28.30;;;5.73;;
2462;SDS011;1243;54.298;10.172;2023-11-19T14:21:56;27.17;;;7.17;;
2462;SDS011;1243;54.298;10.172;2023-11-19T14:24:22;16.60;;;5.87;;
2462;SDS011;1243;54.298;10.172;2023-11-19T14:26:49;26.30;;;8.00;;
2462;SDS011;1243;54.298;10.172;2023-11-19T14:29:16;19.33;;;4.93;;
2462;SDS011;1243;54.298;10.172;2023-11-19T14:31:42;29.20;;;6.57;;
2462;SDS011;1243;54.298;10.172;2023-11-19T14:34:08;25.83;;;5.70;;
2462;SDS011;1243;54.298;10.172;2023-11-19T14:36:34;24.70;;;6.13;;
2462;SDS011;1243;54.298;10.172;2023-11-19T14:39:00;21.47;;;6.33;;
2462;SDS011;1243;54.298;10.172;2023-11-19T14:41:26;23.73;;;5.27;;
2462;SDS011;1243;54.298;10.172;2023-11-19T14:43:51;28.67;;;6.47;;
2462;SDS011;1243;54.298;10.172;2023-11-19T14:46:17;22.07;;;5.60;;
2462;SDS011;1243;54.298;10.172;2023-11-19T14:48:43;23.33;;;6.10;;
2462;SDS011;1243;54.298;10.172;2023-11-19T14:51:09;28.47;;;7.13;;
2462;SDS011;1243;54.298;10.172;2023-11-19T14:53:35;27.77;;;7.03;;
2462;SDS011;1243;54.298;10.172;2023-11-19T14:56:01;23.63;;;7.87;;
2462;SDS011;1243;54.298;10.172;2023-11-19T14:58:27;23.50;;;10.00;;
2462;SDS011;1243;54.298;10.172;2023-11-19T15:00:53;18.60;;;4.63;;
2462;SDS011;1243;54.298;10.172;2023-11-19T15:03:18;22.23;;;6.33;;
2462;SDS011;1243;54.298;10.172;2023-11-19T15:05:47;18.80;;;5.90;;
2462;SDS011;1243;54.298;10.172;2023-11-19T15:08:13;21.70;;;5.40;;
2462;SDS011;1243;54.298;10.172;2023-11-19T15:10:43;18.87;;;6.90;;